Time;durP1;ratioP1;P1;durP2;ratioP2;P2;SDS_P1;SDS_P2;PMS_P1;PMS_P2;Temp;Humidity;BMP_temperature;BMP_pressure;BME280_temperature;BME280_humidity;BME280_pressure;Samples;Min_cycle;Max_cycle;Signal;HPM_P1;HPM_P2
2023/08/09 00:00:47;;;;;;;0.38;0.10;;;;;;;;;;5052766;28;20108;-84
2023/08/09 00:03:13;;;;;;;0.25;0.17;;;;;;;;;;5052206;28;20078;-84
2023/08/09 00:05:39;;;;;;;0.10;0.10;;;;;;;;;;5052419;28;20028;-85
2023/08/09 00:08:05;;;;;;;0.10;0.10;;;;;;;;;;5052281;28;20021;-84
2023/08/09 00:10:32;;;;;;;0.17;0.17;;;;;;;;;;5052736;28;20027;-84
2023/08/09 00:12:58;;;;;;;0.10;0.10;;;;;;;;;;5053235;28;20025;-84
2023/08/09 00:15:24;;;;;;;0.30;0.30;;;;;;;;;;5052411;28;20029;-84
2023/08/09 00:17:50;;;;;;;0.40;0.40;;;;;;;;;;5052037;28;20033;-85
2023/08/09 00:20:16;;;;;;;0.10;0.10;;;;;;;;;;5052150;28;20056;-84
2023/08/09 00:22:42;;;;;;;0.10;0.10;;;;;;;;;;5052143;28;20145;-84
2023/08/09 00:25:10;;;;;;;0.13;0.13;;;;;;;;;;5052148;28;20043;-84
2023/08/09 00:27:37;;;;;;;0.00;0.00;;;;;;;;;;5052499;28;20025;-84
2023/08/09 00:30:03;;;;;;;0.10;0.10;;;;;;;;;;5052079;28;20037;-84
2023/08/09 00:32:29;;;;;;;0.10;0.10;;;;;;;;;;5052078;28;20547;-84
2023/08/09 00:34:56;;;;;;;0.08;0.08;;;;;;;;;;5052234;28;20067;-84
2023/08/09 00:37:22;;;;;;;0.00;0.00;;;;;;;;;;5051919;28;20439;-84
2023/08/09 00:39:49;;;;;;;0.10;0.10;;;;;;;;;;5052020;28;20017;-84
2023/08/09 00:42:15;;;;;;;0.10;0.10;;;;;;;;;;5052169;28;20105;-84
2023/08/09 00:44:41;;;;;;;0.10;0.10;;;;;;;;;;5052376;28;20446;-84
2023/08/09 00:47:07;;;;;;;0.13;0.13;;;;;;;;;;5051706;28;20021;-84
2023/08/09 00:49:33;;;;;;;0.10;0.10;;;;;;;;;;5052370;28;20025;-84
2023/08/09 00:52:00;;;;;;;0.10;0.10;;;;;;;;;;5051750;28;20121;-85
2023/08/09 00:54:26;;;;;;;0.03;0.03;;;;;;;;;;5053517;28;20033;-84
2023/08/09 00:56:52;;;;;;;0.10;0.10;;;;;;;;;;5055949;28;20171;-84
2023/08/09 00:59:18;;;;;;;0.17;0.17;;;;;;;;;;5057062;28;20025;-84
2023/08/09 01:01:44;;;;;;;0.20;0.20;;;;;;;;;;5055708;28;20051;-84
2023/08/09 01:04:10;;;;;;;0.00;0.00;;;;;;;;;;5056205;28;20063;-83
2023/08/09 01:07:03;;;;;;;0.10;0.10;;;;;;;;;;5055528;28;20075;-84
2023/08/09 01:09:35;;;;;;;0.10;0.10;;;;;;;;;;5056222;28;20028;-83
2023/08/09 01:12:22;;;;;;;0.10;0.10;;;;;;;;;;5056073;28;20402;-84
2023/08/09 01:14:51;;;;;;;0.22;0.22;;;;;;;;;;5055439;28;20050;-84
2023/08/09 01:17:18;;;;;;;0.05;0.05;;;;;;;;;;5055686;28;20044;-84
2023/08/09 01:19:53;;;;;;;0.10;0.10;;;;;;;;;;5055862;28;20083;-84
2023/08/09 01:22:33;;;;;;;0.10;0.10;;;;;;;;;;5055958;28;20087;-84
2023/08/09 01:25:03;;;;;;;0.10;0.10;;;;;;;;;;5055525;28;20543;-83
2023/08/09 01:27:29;;;;;;;0.00;0.00;;;;;;;;;;5055566;28;20025;-84
2023/08/09 01:29:56;;;;;;;0.10;0.10;;;;;;;;;;5055307;28;20045;-83
2023/08/09 01:32:23;;;;;;;0.30;0.30;;;;;;;;;;5055293;28;20025;-84
2023/08/09 01:34:49;;;;;;;0.10;0.10;;;;;;;;;;5055283;28;20033;-84
2023/08/09 01:37:24;;;;;;;0.30;0.30;;;;;;;;;;5055493;28;20039;-84
2023/08/09 01:39:52;;;;;;;0.10;0.10;;;;;;;;;;5055489;28;20029;-84
2023/08/09 01:42:18;;;;;;;0.05;0.05;;;;;;;;;;5056085;28;20035;-83
2023/08/09 01:44:45;;;;;;;0.00;0.00;;;;;;;;;;5054745;28;20045;-84
2023/08/09 01:47:11;;;;;;;0.10;0.10;;;;;;;;;;5055152;28;20029;-85
2023/08/09 01:49:44;;;;;;;0.10;0.10;;;;;;;;;;5055101;28;20025;-84
2023/08/09 01:52:10;;;;;;;0.10;0.10;;;;;;;;;;5055141;28;20036;-84
2023/08/09 01:54:36;;;;;;;0.10;0.10;;;;;;;;;;5055385;28;20025;-84
2023/08/09 01:57:02;;;;;;;0.10;0.10;;;;;;;;;;5055029;28;20439;-84
2023/08/09 01:59:28;;;;;;;0.32;0.32;;;;;;;;;;5054667;28;20078;-84
2023/08/09 02:01:54;;;;;;;0.10;0.10;;;;;;;;;;5054881;28;20024;-84
2023/08/09 02:04:20;;;;;;;0.30;0.30;;;;;;;;;;5054741;28;20025;-84
2023/08/09 02:06:46;;;;;;;0.20;0.20;;;;;;;;;;5053717;28;20400;-84
2023/08/09 02:09:13;;;;;;;0.40;0.35;;;;;;;;;;5054975;28;20025;-84
2023/08/09 02:11:40;;;;;;;0.20;0.20;;;;;;;;;;5054814;28;20124;-84
2023/08/09 02:14:06;;;;;;;0.10;0.10;;;;;;;;;;5055862;28;20220;-84
2023/08/09 02:16:32;;;;;;;0.10;0.10;;;;;;;;;;5054670;28;20061;-84
2023/08/09 02:18:59;;;;;;;0.25;0.25;;;;;;;;;;5055071;28;20100;-84
2023/08/09 02:21:26;;;;;;;0.10;0.10;;;;;;;;;;5054241;28;20084;-84
2023/08/09 02:23:52;;;;;;;0.00;0.00;;;;;;;;;;5054311;28;20017;-84
2023/08/09 02:26:21;;;;;;;0.10;0.10;;;;;;;;;;5054506;28;20021;-83
2023/08/09 02:28:48;;;;;;;0.10;0.10;;;;;;;;;;5054035;28;20028;-84
2023/08/09 02:31:14;;;;;;;1.30;0.40;;;;;;;;;;5054681;28;20036;-84
2023/08/09 02:33:40;;;;;;;0.20;0.20;;;;;;;;;;5054005;28;20436;-84
2023/08/09 02:36:07;;;;;;;0.30;0.30;;;;;;;;;;5054418;28;20120;-84
2023/08/09 02:38:34;;;;;;;0.30;0.30;;;;;;;;;;5053999;28;20032;-84
2023/08/09 02:41:06;;;;;;;0.15;0.15;;;;;;;;;;5054348;28;20021;-84
2023/08/09 02:43:32;;;;;;;0.10;0.10;;;;;;;;;;5054002;28;20060;-84
2023/08/09 02:45:58;;;;;;;0.57;0.57;;;;;;;;;;5053928;28;20032;-84
2023/08/09 02:48:25;;;;;;;0.32;0.32;;;;;;;;;;5053919;28;20028;-84
2023/08/09 02:50:51;;;;;;;0.00;0.00;;;;;;;;;;5053974;28;20086;-83
2023/08/09 02:53:17;;;;;;;0.10;0.10;;;;;;;;;;5054284;28;20114;-84
2023/08/09 02:55:43;;;;;;;0.10;0.10;;;;;;;;;;5053741;28;20400;-84
2023/08/09 02:58:10;;;;;;;0.17;0.17;;;;;;;;;;5054286;28;20385;-83
2023/08/09 03:00:36;;;;;;;0.10;0.10;;;;;;;;;;5053670;28;20460;-84
2023/08/09 03:03:06;;;;;;;0.30;0.30;;;;;;;;;;5053864;28;20036;-83
2023/08/09 03:05:32;;;;;;;0.20;0.20;;;;;;;;;;5053798;28;20112;-83
2023/08/09 03:07:59;;;;;;;0.10;0.10;;;;;;;;;;5053671;28;20025;-84
2023/08/09 03:10:25;;;;;;;0.10;0.10;;;;;;;;;;5053209;28;20021;-83
2023/08/09 03:12:51;;;;;;;0.52;0.52;;;;;;;;;;5053550;28;20559;-83
2023/08/09 03:15:17;;;;;;;0.00;0.00;;;;;;;;;;5053835;28;20028;-83
2023/08/09 03:17:43;;;;;;;0.10;0.10;;;;;;;;;;5053284;28;20091;-84
2023/08/09 03:20:11;;;;;;;0.10;0.10;;;;;;;;;;5053326;28;20029;-84
2023/08/09 03:22:37;;;;;;;0.80;0.20;;;;;;;;;;5053334;28;20048;-84
2023/08/09 03:25:03;;;;;;;0.20;0.20;;;;;;;;;;5053320;28;20100;-84
2023/08/09 03:27:29;;;;;;;0.10;0.10;;;;;;;;;;5053267;28;20043;-84
2023/08/09 03:29:55;;;;;;;0.20;0.20;;;;;;;;;;5053214;28;20029;-84
2023/08/09 03:32:21;;;;;;;0.10;0.10;;;;;;;;;;5053152;28;20485;-83
2023/08/09 03:34:47;;;;;;;0.10;0.10;;;;;;;;;;5053438;28;20033;-83
2023/08/09 03:37:13;;;;;;;0.00;0.00;;;;;;;;;;5053006;28;20543;-84
2023/08/09 03:39:39;;;;;;;0.10;0.10;;;;;;;;;;5052588;28;20156;-84
2023/08/09 03:42:05;;;;;;;0.08;0.08;;;;;;;;;;5053782;28;20025;-83
2023/08/09 03:44:31;;;;;;;0.20;0.20;;;;;;;;;;5052902;28;20029;-83
2023/08/09 03:46:58;;;;;;;0.63;0.38;;;;;;;;;;5052825;28;20021;-84
2023/08/09 03:49:24;;;;;;;0.10;0.10;;;;;;;;;;5052754;28;20029;-83
2023/08/09 03:51:50;;;;;;;0.10;0.10;;;;;;;;;;5052892;28;20029;-84
2023/08/09 03:54:16;;;;;;;0.10;0.10;;;;;;;;;;5052684;28;20029;-84
2023/08/09 03:56:42;;;;;;;0.10;0.10;;;;;;;;;;5052717;28;20044;-84
2023/08/09 03:59:08;;;;;;;0.10;0.10;;;;;;;;;;5052426;28;20049;-84
2023/08/09 04:01:34;;;;;;;0.10;0.10;;;;;;;;;;5052916;28;20083;-83
2023/08/09 04:04:00;;;;;;;0.10;0.10;;;;;;;;;;5052638;28;20436;-84
2023/08/09 04:06:26;;;;;;;0.25;0.17;;;;;;;;;;5052430;28;20048;-84
2023/08/09 04:08:52;;;;;;;0.10;0.10;;;;;;;;;;5052089;28;20481;-83
2023/08/09 04:11:18;;;;;;;0.10;0.10;;;;;;;;;;5052796;28;20033;-84
2023/08/09 04:13:44;;;;;;;0.10;0.10;;;;;;;;;;5052434;28;20079;-84
2023/08/09 04:16:10;;;;;;;0.30;0.20;;;;;;;;;;5052335;28;20390;-83
2023/08/09 04:18:36;;;;;;;0.20;0.20;;;;;;;;;;5052649;28;20066;-84
2023/08/09 04:21:02;;;;;;;0.03;0.03;;;;;;;;;;5052174;28;20060;-83
2023/08/09 04:23:28;;;;;;;0.10;0.10;;;;;;;;;;5051835;28;20056;-83
2023/08/09 04:25:57;;;;;;;0.32;0.32;;;;;;;;;;5052244;28;20091;-83
2023/08/09 04:28:23;;;;;;;0.10;0.10;;;;;;;;;;5051894;28;20043;-83
2023/08/09 04:30:49;;;;;;;0.10;0.10;;;;;;;;;;5051973;28;20028;-84
2023/08/09 04:33:16;;;;;;;0.40;0.40;;;;;;;;;;5052081;28;20474;-84
2023/08/09 04:35:43;;;;;;;0.20;0.20;;;;;;;;;;5052940;28;20543;-84
2023/08/09 04:38:09;;;;;;;0.20;0.20;;;;;;;;;;5051742;28;20087;-83
2023/08/09 04:40:36;;;;;;;0.10;0.10;;;;;;;;;;5052361;28;20033;-84
2023/08/09 04:43:03;;;;;;;0.32;0.20;;;;;;;;;;5051999;28;20092;-84
2023/08/09 04:45:29;;;;;;;0.10;0.10;;;;;;;;;;5052211;28;20430;-83
2023/08/09 04:47:56;;;;;;;8.20;0.57;;;;;;;;;;5052034;28;20105;-84
2023/08/09 04:50:23;;;;;;;0.05;0.05;;;;;;;;;;5051992;28;20082;-84
2023/08/09 04:52:50;;;;;;;0.10;0.10;;;;;;;;;;5051703;28;20029;-84
2023/08/09 04:55:16;;;;;;;0.40;0.40;;;;;;;;;;5052107;28;20055;-84
2023/08/09 04:57:42;;;;;;;0.10;0.10;;;;;;;;;;5052095;28;20120;-83
2023/08/09 05:00:12;;;;;;;0.10;0.10;;;;;;;;;;5051845;28;20113;-84
2023/08/09 05:02:38;;;;;;;0.10;0.10;;;;;;;;;;5052401;28;20091;-83
2023/08/09 05:05:04;;;;;;;0.17;0.17;;;;;;;;;;5051785;28;20100;-84
2023/08/09 05:07:30;;;;;;;0.10;0.10;;;;;;;;;;5051669;28;20476;-83
2023/08/09 05:09:56;;;;;;;0.20;0.20;;;;;;;;;;5051624;28;20057;-83
2023/08/09 05:12:22;;;;;;;0.10;0.10;;;;;;;;;;5052288;28;20063;-84
2023/08/09 05:14:48;;;;;;;0.30;0.30;;;;;;;;;;5051768;28;20495;-84
2023/08/09 05:17:14;;;;;;;0.30;0.30;;;;;;;;;;5051713;28;20091;-84
2023/08/09 05:19:40;;;;;;;0.00;0.00;;;;;;;;;;5051900;28;20049;-84
2023/08/09 05:22:06;;;;;;;0.10;0.10;;;;;;;;;;5051468;28;20099;-84
2023/08/09 05:24:33;;;;;;;0.10;0.10;;;;;;;;;;5051630;28;20068;-83
2023/08/09 05:26:59;;;;;;;0.22;0.22;;;;;;;;;;5052191;28;20021;-84
2023/08/09 05:29:25;;;;;;;0.10;0.10;;;;;;;;;;5051594;28;20500;-84
2023/08/09 05:31:51;;;;;;;0.10;0.10;;;;;;;;;;5051559;28;20028;-83
2023/08/09 05:34:17;;;;;;;0.20;0.13;;;;;;;;;;5051741;28;20021;-84
2023/08/09 05:36:44;;;;;;;0.20;0.20;;;;;;;;;;5051411;28;20116;-84
2023/08/09 05:39:10;;;;;;;0.10;0.10;;;;;;;;;;5051130;28;20033;-83
2023/08/09 05:41:36;;;;;;;0.77;0.30;;;;;;;;;;5052862;28;20032;-84
2023/08/09 05:44:02;;;;;;;0.10;0.10;;;;;;;;;;5055607;28;20061;-83
2023/08/09 05:46:28;;;;;;;0.10;0.10;;;;;;;;;;5055094;28;20041;-84
2023/08/09 05:48:55;;;;;;;0.30;0.30;;;;;;;;;;5055099;28;20029;-83
2023/08/09 05:51:21;;;;;;;0.10;0.10;;;;;;;;;;5054843;28;20075;-84
2023/08/09 05:53:47;;;;;;;0.10;0.10;;;;;;;;;;5054984;28;20509;-84
2023/08/09 05:56:13;;;;;;;0.20;0.20;;;;;;;;;;5055096;28;20116;-83
2023/08/09 05:58:39;;;;;;;0.10;0.10;;;;;;;;;;5054996;28;20064;-84
2023/08/09 06:01:08;;;;;;;0.65;0.55;;;;;;;;;;5055013;28;20016;-84
2023/08/09 06:03:39;;;;;;;0.25;0.13;;;;;;;;;;5054868;28;20036;-84
2023/08/09 06:06:06;;;;;;;0.15;0.10;;;;;;;;;;5054376;28;20078;-83
2023/08/09 06:08:33;;;;;;;0.10;0.10;;;;;;;;;;5054904;28;20029;-84
2023/08/09 06:10:59;;;;;;;0.10;0.10;;;;;;;;;;5054778;28;20013;-84
2023/08/09 06:13:25;;;;;;;0.13;0.13;;;;;;;;;;5054512;28;20021;-83
2023/08/09 06:15:51;;;;;;;0.10;0.10;;;;;;;;;;5054581;28;20025;-84
2023/08/09 06:18:17;;;;;;;0.20;0.20;;;;;;;;;;5054464;28;20434;-84
2023/08/09 06:20:43;;;;;;;0.10;0.10;;;;;;;;;;5054412;28;20076;-84
2023/08/09 06:23:10;;;;;;;0.10;0.10;;;;;;;;;;5054342;28;20032;-83
2023/08/09 06:25:36;;;;;;;0.32;0.32;;;;;;;;;;5054475;28;20021;-84
2023/08/09 06:28:02;;;;;;;0.10;0.10;;;;;;;;;;5054408;28;20025;-84
2023/08/09 06:30:28;;;;;;;0.25;0.25;;;;;;;;;;5054297;28;20032;-83
2023/08/09 06:32:54;;;;;;;0.13;0.13;;;;;;;;;;5054338;28;20032;-83
2023/08/09 06:35:20;;;;;;;0.10;0.10;;;;;;;;;;5055106;28;20079;-84
2023/08/09 06:37:48;;;;;;;0.10;0.10;;;;;;;;;;5054138;28;20091;-83
2023/08/09 06:40:15;;;;;;;0.70;0.20;;;;;;;;;;5054129;28;20049;-84
2023/08/09 06:42:42;;;;;;;0.10;0.10;;;;;;;;;;5054822;28;20025;-84
2023/08/09 06:45:08;;;;;;;0.10;0.10;;;;;;;;;;5052809;28;20369;-84
2023/08/09 06:47:34;;;;;;;0.10;0.10;;;;;;;;;;5054112;28;20537;-84
2023/08/09 06:50:04;;;;;;;0.20;0.20;;;;;;;;;;5054066;28;20063;-84
2023/08/09 06:52:31;;;;;;;0.10;0.10;;;;;;;;;;5053543;28;20025;-84
2023/08/09 06:54:57;;;;;;;0.20;0.20;;;;;;;;;;5053846;28;20117;-84
2023/08/09 06:57:23;;;;;;;0.10;0.10;;;;;;;;;;5053929;28;20040;-84
2023/08/09 06:59:49;;;;;;;0.22;0.22;;;;;;;;;;5053619;28;20048;-92
2023/08/09 07:02:15;;;;;;;0.10;0.10;;;;;;;;;;5054248;28;20113;-84
2023/08/09 07:04:41;;;;;;;0.08;0.08;;;;;;;;;;5053403;28;20029;-84
2023/08/09 07:07:07;;;;;;;0.00;0.00;;;;;;;;;;5053534;28;20036;-85
2023/08/09 07:09:33;;;;;;;0.20;0.20;;;;;;;;;;5053468;28;20021;-84
2023/08/09 07:11:59;;;;;;;0.20;0.20;;;;;;;;;;5053630;28;20083;-85
2023/08/09 07:14:25;;;;;;;0.10;0.10;;;;;;;;;;5054009;28;20020;-84
2023/08/09 07:16:51;;;;;;;0.10;0.10;;;;;;;;;;5053099;28;20523;-82
2023/08/09 07:19:17;;;;;;;0.10;0.10;;;;;;;;;;5053392;28;20032;-84
2023/08/09 07:21:43;;;;;;;0.10;0.10;;;;;;;;;;5053181;28;20401;-84
2023/08/09 07:24:09;;;;;;;0.52;0.17;;;;;;;;;;5053651;28;20025;-84
2023/08/09 07:26:35;;;;;;;0.32;0.32;;;;;;;;;;5053133;28;20017;-84
2023/08/09 07:29:01;;;;;;;0.10;0.10;;;;;;;;;;5053487;28;20032;-84
2023/08/09 07:31:27;;;;;;;0.10;0.10;;;;;;;;;;5052850;28;20484;-84
2023/08/09 07:33:53;;;;;;;0.17;0.17;;;;;;;;;;5053528;28;20036;-84
2023/08/09 07:36:19;;;;;;;0.17;0.17;;;;;;;;;;5053227;28;20025;-84
2023/08/09 07:38:45;;;;;;;0.10;0.10;;;;;;;;;;5052824;28;20452;-84
2023/08/09 07:41:12;;;;;;;0.20;0.20;;;;;;;;;;5052978;28;20017;-84
2023/08/09 07:43:38;;;;;;;0.00;0.00;;;;;;;;;;5052004;28;20489;-84
2023/08/09 07:46:05;;;;;;;0.10;0.10;;;;;;;;;;5052623;28;20092;-84
2023/08/09 07:48:31;;;;;;;0.10;0.10;;;;;;;;;;5052831;28;20079;-84
2023/08/09 07:50:57;;;;;;;0.10;0.10;;;;;;;;;;5052884;28;20037;-83
2023/08/09 07:53:23;;;;;;;0.00;0.00;;;;;;;;;;5052918;28;20021;-84
2023/08/09 07:55:49;;;;;;;0.10;0.10;;;;;;;;;;5052593;28;20485;-84
2023/08/09 07:58:15;;;;;;;0.10;0.10;;;;;;;;;;5051874;28;20037;-84
2023/08/09 08:00:41;;;;;;;0.10;0.10;;;;;;;;;;5052089;28;20074;-84
2023/08/09 08:03:09;;;;;;;0.00;0.00;;;;;;;;;;5052735;28;20029;-84
2023/08/09 08:05:36;;;;;;;0.65;0.55;;;;;;;;;;5052066;28;20024;-84
2023/08/09 08:08:02;;;;;;;0.20;0.20;;;;;;;;;;5052302;28;20545;-84
2023/08/09 08:10:28;;;;;;;0.13;0.13;;;;;;;;;;5052497;28;20036;-84
2023/08/09 08:12:54;;;;;;;0.10;0.10;;;;;;;;;;5052508;28;20122;-84
2023/08/09 08:15:22;;;;;;;0.10;0.10;;;;;;;;;;5052174;28;20032;-84
2023/08/09 08:17:51;;;;;;;0.00;0.00;;;;;;;;;;5052463;28;20404;-84
2023/08/09 08:20:17;;;;;;;0.03;0.03;;;;;;;;;;5052493;28;20021;-83
2023/08/09 08:22:47;;;;;;;0.10;0.10;;;;;;;;;;5052158;28;20032;-84
2023/08/09 08:25:14;;;;;;;0.10;0.10;;;;;;;;;;5050989;28;20397;-84
2023/08/09 08:27:42;;;;;;;0.00;0.00;;;;;;;;;;5052651;28;20028;-84
2023/08/09 08:30:08;;;;;;;0.38;0.38;;;;;;;;;;5052174;28;20025;-83
2023/08/09 08:32:35;;;;;;;0.28;0.20;;;;;;;;;;5052194;28;20032;-84
2023/08/09 08:35:02;;;;;;;0.10;0.10;;;;;;;;;;5052077;28;20025;-84
2023/08/09 08:37:28;;;;;;;0.00;0.00;;;;;;;;;;5052570;28;20147;-84
2023/08/09 08:39:55;;;;;;;0.10;0.10;;;;;;;;;;5052046;28;20537;-84
2023/08/09 08:42:21;;;;;;;0.40;0.40;;;;;;;;;;5052232;28;20400;-83
2023/08/09 08:44:47;;;;;;;0.35;0.35;;;;;;;;;;5052117;28;20087;-84
2023/08/09 08:47:13;;;;;;;0.10;0.10;;;;;;;;;;5052045;28;20428;-83
2023/08/09 08:49:44;;;;;;;0.10;0.10;;;;;;;;;;5052007;28;20029;-84
2023/08/09 08:52:12;;;;;;;0.00;0.00;;;;;;;;;;5052325;28;20028;-83
2023/08/09 08:54:38;;;;;;;0.20;0.20;;;;;;;;;;5051942;28;20096;-84
2023/08/09 08:57:05;;;;;;;0.20;0.20;;;;;;;;;;5051857;28;20070;-84
2023/08/09 08:59:31;;;;;;;0.55;0.30;;;;;;;;;;5051691;28;20021;-83
2023/08/09 09:01:58;;;;;;;0.10;0.10;;;;;;;;;;5051927;28;20445;-84
2023/08/09 09:04:24;;;;;;;0.00;0.00;;;;;;;;;;5052547;28;20037;-84
2023/08/09 09:06:51;;;;;;;0.20;0.20;;;;;;;;;;5051663;28;20037;-85
2023/08/09 09:09:17;;;;;;;0.20;0.20;;;;;;;;;;5052234;28;20032;-85
2023/08/09 09:11:44;;;;;;;0.10;0.10;;;;;;;;;;5051722;28;20544;-85
2023/08/09 09:14:11;;;;;;;0.15;0.15;;;;;;;;;;5051437;28;20029;-85
2023/08/09 09:16:37;;;;;;;0.30;0.30;;;;;;;;;;5054977;28;20060;-85
2023/08/09 09:19:03;;;;;;;0.20;0.20;;;;;;;;;;5055651;28;20021;-85
2023/08/09 09:21:31;;;;;;;0.35;0.30;;;;;;;;;;5055955;28;20501;-85
2023/08/09 09:23:57;;;;;;;0.73;0.28;;;;;;;;;;5055449;28;20481;-85
2023/08/09 09:26:23;;;;;;;0.10;0.10;;;;;;;;;;5055610;28;20029;-85
2023/08/09 09:28:50;;;;;;;0.10;0.10;;;;;;;;;;5054494;28;20469;-86
2023/08/09 09:31:20;;;;;;;0.10;0.10;;;;;;;;;;5050574;28;20087;-85
2023/08/09 09:33:49;;;;;;;0.10;0.10;;;;;;;;;;5035664;28;20026;-85
2023/08/09 09:36:19;;;;;;;0.10;0.10;;;;;;;;;;5047538;28;20033;-85
2023/08/09 09:38:47;;;;;;;1.08;1.08;;;;;;;;;;5055346;28;20036;-85
2023/08/09 09:41:15;;;;;;;0.30;0.20;;;;;;;;;;5054505;28;20041;-85
2023/08/09 09:43:42;;;;;;;0.10;0.10;;;;;;;;;;5055465;28;20100;-84
2023/08/09 09:46:22;;;;;;;0.10;0.10;;;;;;;;;;5054568;28;20090;-85
2023/08/09 09:48:49;;;;;;;0.20;0.20;;;;;;;;;;5054735;28;20578;-85
2023/08/09 09:51:19;;;;;;;0.20;0.20;;;;;;;;;;5055276;28;20362;-85
2023/08/09 09:53:46;;;;;;;1.45;0.20;;;;;;;;;;5050979;28;20025;-85
2023/08/09 09:56:13;;;;;;;0.20;0.20;;;;;;;;;;5046996;28;20512;-85
2023/08/09 09:58:39;;;;;;;0.30;0.30;;;;;;;;;;5054440;28;20037;-85
2023/08/09 10:01:08;;;;;;;0.30;0.30;;;;;;;;;;5036311;28;20117;-85
2023/08/09 10:03:38;;;;;;;0.47;0.40;;;;;;;;;;5035101;28;20109;-85
2023/08/09 10:06:06;;;;;;;0.20;0.20;;;;;;;;;;5045423;28;20107;-85
2023/08/09 10:08:32;;;;;;;0.00;0.00;;;;;;;;;;5037652;28;20522;-85
2023/08/09 10:10:59;;;;;;;0.00;0.00;;;;;;;;;;5034467;28;20032;-85
2023/08/09 10:13:26;;;;;;;0.08;0.08;;;;;;;;;;5035564;28;20401;-85
2023/08/09 10:15:54;;;;;;;0.15;0.10;;;;;;;;;;5034951;28;20026;-84
2023/08/09 10:18:25;;;;;;;0.10;0.10;;;;;;;;;;5048987;28;20123;-85
2023/08/09 10:20:52;;;;;;;0.80;0.32;;;;;;;;;;5054328;28;20392;-85
2023/08/09 10:23:26;;;;;;;0.15;0.15;;;;;;;;;;5053624;28;20028;-85
2023/08/09 10:25:55;;;;;;;0.00;0.00;;;;;;;;;;5054287;28;20013;-85
2023/08/09 10:28:43;;;;;;;0.10;0.10;;;;;;;;;;5053337;28;20037;-86
2023/08/09 10:31:09;;;;;;;0.10;0.10;;;;;;;;;;5054449;28;20025;-86
2023/08/09 10:33:35;;;;;;;0.22;0.22;;;;;;;;;;5054153;28;20080;-85
2023/08/09 10:36:01;;;;;;;0.10;0.10;;;;;;;;;;5053522;28;20036;-85
2023/08/09 10:38:31;;;;;;;0.10;0.10;;;;;;;;;;5054350;28;20029;-84
2023/08/09 10:40:58;;;;;;;0.08;0.08;;;;;;;;;;5053520;28;20025;-85
2023/08/09 10:43:26;;;;;;;0.00;0.00;;;;;;;;;;5054214;28;20450;-85
2023/08/09 10:45:56;;;;;;;0.10;0.10;;;;;;;;;;5053669;28;20036;-84
2023/08/09 10:48:23;;;;;;;0.00;0.00;;;;;;;;;;5054095;28;20563;-86
2023/08/09 10:51:01;;;;;;;0.20;0.20;;;;;;;;;;5053838;28;20025;-85
2023/08/09 10:53:27;;;;;;;0.10;0.10;;;;;;;;;;5054264;28;20048;-86
2023/08/09 10:55:56;;;;;;;0.22;0.22;;;;;;;;;;5053152;28;20021;-86
2023/08/09 10:58:25;;;;;;;0.65;0.47;;;;;;;;;;5052753;28;20442;-85
2023/08/09 11:00:52;;;;;;;0.30;0.15;;;;;;;;;;5053176;28;20095;-86
2023/08/09 11:03:18;;;;;;;0.10;0.10;;;;;;;;;;5053937;28;20057;-85
2023/08/09 11:05:45;;;;;;;0.30;0.30;;;;;;;;;;5053445;28;20028;-85
2023/08/09 11:08:12;;;;;;;0.10;0.10;;;;;;;;;;5053111;28;20056;-85
2023/08/09 11:10:39;;;;;;;0.00;0.00;;;;;;;;;;5053160;28;20489;-86
2023/08/09 11:13:10;;;;;;;0.00;0.00;;;;;;;;;;5053596;28;20053;-85
2023/08/09 11:15:37;;;;;;;0.10;0.10;;;;;;;;;;5053258;28;20037;-86
2023/08/09 11:18:03;;;;;;;0.00;0.00;;;;;;;;;;5053390;28;20125;-85
2023/08/09 11:20:29;;;;;;;0.10;0.10;;;;;;;;;;5052903;28;20037;-86
2023/08/09 11:22:56;;;;;;;0.57;0.25;;;;;;;;;;5053716;28;20278;-85
2023/08/09 11:25:22;;;;;;;0.10;0.10;;;;;;;;;;5052889;28;20031;-87
2023/08/09 11:27:52;;;;;;;0.50;0.50;;;;;;;;;;5053283;28;20551;-85
2023/08/09 11:30:19;;;;;;;0.20;0.20;;;;;;;;;;5052811;28;20033;-85
2023/08/09 11:32:45;;;;;;;0.00;0.00;;;;;;;;;;5053376;28;20058;-86
2023/08/09 11:35:11;;;;;;;0.10;0.10;;;;;;;;;;5052514;28;20108;-86
2023/08/09 11:37:37;;;;;;;0.47;0.47;;;;;;;;;;5053022;28;20387;-86
2023/08/09 11:40:04;;;;;;;0.35;0.32;;;;;;;;;;5051335;28;20171;-86
2023/08/09 11:42:30;;;;;;;0.10;0.10;;;;;;;;;;5053097;28;20103;-86
2023/08/09 11:44:56;;;;;;;0.10;0.10;;;;;;;;;;5052568;28;20129;-86
2023/08/09 11:47:26;;;;;;;0.10;0.10;;;;;;;;;;5047580;28;20144;-86
2023/08/09 11:49:52;;;;;;;0.00;0.00;;;;;;;;;;5052796;28;20389;-84
2023/08/09 11:52:18;;;;;;;0.03;0.03;;;;;;;;;;5047028;28;20104;-84
2023/08/09 11:54:44;;;;;;;0.00;0.00;;;;;;;;;;5052373;28;20029;-83
2023/08/09 11:57:10;;;;;;;0.10;0.10;;;;;;;;;;5052604;28;20456;-84
2023/08/09 11:59:38;;;;;;;0.00;0.00;;;;;;;;;;5064106;28;20028;-85
2023/08/09 12:02:06;;;;;;;0.10;0.10;;;;;;;;;;5072473;28;20028;-84
2023/08/09 12:04:33;;;;;;;0.00;0.00;;;;;;;;;;5068057;28;20396;-84
2023/08/09 12:07:01;;;;;;;0.00;0.00;;;;;;;;;;5052122;28;20119;-84
2023/08/09 12:09:30;;;;;;;0.10;0.10;;;;;;;;;;5043272;28;20383;-84
2023/08/09 12:12:17;;;;;;;0.10;0.10;;;;;;;;;;5051977;28;20489;-85
2023/08/09 12:14:46;;;;;;;0.20;0.20;;;;;;;;;;5052198;28;20029;-84
2023/08/09 12:17:19;;;;;;;0.10;0.10;;;;;;;;;;5043432;28;20040;-85
2023/08/09 12:19:45;;;;;;;0.03;0.03;;;;;;;;;;5040705;28;20060;-84
2023/08/09 12:22:11;;;;;;;0.00;0.00;;;;;;;;;;5049033;28;20504;-84
2023/08/09 12:24:37;;;;;;;0.10;0.10;;;;;;;;;;5050351;28;20055;-84
2023/08/09 12:27:04;;;;;;;0.10;0.10;;;;;;;;;;5048591;28;20416;-84
2023/08/09 12:29:30;;;;;;;0.20;0.20;;;;;;;;;;5052160;28;20366;-84
2023/08/09 12:31:56;;;;;;;0.20;0.13;;;;;;;;;;5043001;28;20440;-84
2023/08/09 12:34:22;;;;;;;0.05;0.05;;;;;;;;;;5052695;28;20017;-84
2023/08/09 12:36:48;;;;;;;0.15;0.10;;;;;;;;;;5051130;28;20074;-84
2023/08/09 12:39:14;;;;;;;0.00;0.00;;;;;;;;;;5035339;28;20030;-84
2023/08/09 12:41:41;;;;;;;0.10;0.10;;;;;;;;;;5050907;28;20022;-84
2023/08/09 12:44:07;;;;;;;0.00;0.00;;;;;;;;;;5041479;28;20386;-83
2023/08/09 12:46:34;;;;;;;0.20;0.20;;;;;;;;;;5034371;28;20029;-84
2023/08/09 12:49:00;;;;;;;0.10;0.10;;;;;;;;;;5045032;28;20032;-84
2023/08/09 12:51:26;;;;;;;0.03;0.03;;;;;;;;;;5051358;28;20025;-84
2023/08/09 12:53:52;;;;;;;0.08;0.08;;;;;;;;;;5045800;28;20021;-84
2023/08/09 12:56:18;;;;;;;0.38;0.28;;;;;;;;;;5031485;28;20056;-84
2023/08/09 12:58:44;;;;;;;0.10;0.10;;;;;;;;;;5031764;28;20034;-84
2023/08/09 13:01:12;;;;;;;0.05;0.05;;;;;;;;;;5031856;28;20022;-84
2023/08/09 13:03:38;;;;;;;0.20;0.20;;;;;;;;;;5039274;28;20029;-84
2023/08/09 13:06:04;;;;;;;0.05;0.05;;;;;;;;;;5051242;28;20054;-84
2023/08/09 13:08:31;;;;;;;0.10;0.10;;;;;;;;;;5048304;28;20030;-84
2023/08/09 13:10:57;;;;;;;0.00;0.00;;;;;;;;;;5065383;28;20028;-84
2023/08/09 13:13:23;;;;;;;0.10;0.10;;;;;;;;;;5056346;28;20037;-84
2023/08/09 13:15:49;;;;;;;0.00;0.00;;;;;;;;;;5051423;28;20020;-83
2023/08/09 13:18:15;;;;;;;0.08;0.08;;;;;;;;;;5042193;28;20057;-83
2023/08/09 13:20:41;;;;;;;0.10;0.10;;;;;;;;;;5035546;28;20067;-83
2023/08/09 13:23:08;;;;;;;0.10;0.10;;;;;;;;;;5035797;28;20037;-83
2023/08/09 13:25:34;;;;;;;0.10;0.10;;;;;;;;;;5051379;28;20040;-83
2023/08/09 13:28:03;;;;;;;0.10;0.10;;;;;;;;;;5050829;28;20021;-83
2023/08/09 13:30:29;;;;;;;0.10;0.10;;;;;;;;;;5051617;28;20029;-83
2023/08/09 13:32:55;;;;;;;0.20;0.20;;;;;;;;;;5051837;28;20044;-83
2023/08/09 13:35:21;;;;;;;0.10;0.10;;;;;;;;;;5049359;28;20025;-83
2023/08/09 13:37:47;;;;;;;0.00;0.00;;;;;;;;;;5050899;28;20118;-83
2023/08/09 13:40:15;;;;;;;0.00;0.00;;;;;;;;;;5050061;28;20485;-81
2023/08/09 13:42:42;;;;;;;0.10;0.10;;;;;;;;;;5046059;28;20033;-81
2023/08/09 13:45:08;;;;;;;0.10;0.10;;;;;;;;;;5051202;28;20358;-81
2023/08/09 13:47:34;;;;;;;0.15;0.15;;;;;;;;;;5049547;28;20405;-83
2023/08/09 13:50:00;;;;;;;0.10;0.10;;;;;;;;;;5050865;28;20595;-82
2023/08/09 13:52:26;;;;;;;0.10;0.10;;;;;;;;;;5051489;28;20029;-82
2023/08/09 13:54:52;;;;;;;5.28;0.40;;;;;;;;;;5050999;28;20025;-82
2023/08/09 13:57:18;;;;;;;0.10;0.10;;;;;;;;;;5044801;28;20112;-81
2023/08/09 13:59:45;;;;;;;0.10;0.10;;;;;;;;;;5048655;28;20115;-81
2023/08/09 14:02:11;;;;;;;0.25;0.25;;;;;;;;;;5048078;28;20040;-81
2023/08/09 14:04:37;;;;;;;0.10;0.10;;;;;;;;;;5059235;28;20033;-81
2023/08/09 14:07:04;;;;;;;0.10;0.10;;;;;;;;;;5039841;28;20417;-81
2023/08/09 14:09:31;;;;;;;0.05;0.05;;;;;;;;;;5054764;28;20024;-82
2023/08/09 14:11:57;;;;;;;0.20;0.20;;;;;;;;;;5054375;28;20033;-82
2023/08/09 14:14:23;;;;;;;0.10;0.10;;;;;;;;;;5054735;28;20021;-81
2023/08/09 14:16:51;;;;;;;0.17;0.17;;;;;;;;;;5054593;28;20032;-82
2023/08/09 14:19:17;;;;;;;0.10;0.10;;;;;;;;;;5051370;28;20053;-82
2023/08/09 14:21:43;;;;;;;0.52;0.52;;;;;;;;;;5034321;28;20512;-82
2023/08/09 14:24:09;;;;;;;0.10;0.10;;;;;;;;;;5051139;28;20055;-82
2023/08/09 14:26:35;;;;;;;0.10;0.10;;;;;;;;;;5052979;28;20033;-82
2023/08/09 14:29:02;;;;;;;0.60;0.38;;;;;;;;;;5054738;28;20025;-82
2023/08/09 14:31:28;;;;;;;0.10;0.10;;;;;;;;;;5054829;28;20141;-82
2023/08/09 14:33:54;;;;;;;0.38;0.38;;;;;;;;;;5053831;28;20131;-82
2023/08/09 14:36:22;;;;;;;0.10;0.10;;;;;;;;;;5054361;28;20528;-81
2023/08/09 14:38:48;;;;;;;0.00;0.00;;;;;;;;;;5052823;28;20987;-82
2023/08/09 14:41:14;;;;;;;0.25;0.25;;;;;;;;;;5062173;28;20081;-82